createdAt,value
2022-08-07T00:00:43.374Z,0.43
2022-08-07T00:03:36.906Z,0.50
2022-08-07T00:06:33.074Z,0.50
2022-08-07T00:09:22.411Z,0.80
2022-08-07T00:12:09.215Z,0.70
2022-08-07T00:14:56.124Z,0.70
2022-08-07T00:17:42.493Z,0.60
2022-08-07T00:20:29.809Z,0.80
2022-08-07T00:23:21.161Z,0.50
2022-08-07T00:26:13.022Z,0.65
2022-08-07T00:29:06.054Z,1.00
2022-08-07T00:31:54.540Z,1.00
2022-08-07T00:34:41.022Z,0.70
2022-08-07T00:37:26.603Z,0.77
2022-08-07T00:40:15.666Z,0.60
2022-08-07T00:43:59.450Z,0.67
2022-08-07T00:46:27.389Z,0.68
2022-08-07T00:49:24.959Z,1.08
2022-08-07T00:52:20.413Z,0.88
2022-08-07T00:55:10.534Z,0.73
2022-08-07T00:57:56.659Z,0.77
2022-08-07T01:00:53.874Z,0.75
2022-08-07T01:03:55.298Z,0.77
2022-08-07T01:06:48.082Z,0.73
2022-08-07T01:09:51.138Z,0.80
2022-08-07T01:12:53.509Z,0.73
2022-08-07T01:16:01.042Z,0.68
2022-08-07T01:18:50.819Z,0.60
2022-08-07T01:21:37.623Z,0.68
2022-08-07T01:24:25.606Z,0.65
2022-08-07T01:27:19.981Z,0.70
2022-08-07T01:30:08.164Z,0.43
2022-08-07T01:32:57.374Z,0.43
2022-08-07T01:35:53.435Z,0.60
2022-08-07T01:38:45.503Z,0.60
2022-08-07T01:42:01.517Z,0.60
2022-08-07T01:44:48.929Z,0.60
2022-08-07T01:48:19.102Z,0.60
2022-08-07T01:50:45.855Z,0.68
2022-08-07T01:54:09.314Z,0.65
2022-08-07T01:57:03.946Z,0.57
2022-08-07T01:59:54.950Z,0.50
2022-08-07T02:03:11.918Z,0.70
2022-08-07T02:06:08.899Z,0.65
2022-08-07T02:09:33.916Z,0.60
2022-08-07T02:12:29.397Z,0.68
2022-08-07T02:15:26.441Z,0.60
2022-08-07T02:18:17.763Z,0.50
2022-08-07T02:21:07.219Z,0.50
2022-08-07T02:24:01.865Z,0.35
2022-08-07T02:26:50.709Z,0.50
2022-08-07T02:29:43.563Z,0.47
2022-08-07T02:33:08.985Z,0.50
2022-08-07T02:36:27.245Z,0.40
2022-08-07T02:38:57.789Z,0.50
2022-08-07T02:41:47.269Z,0.43
2022-08-07T02:44:47.775Z,0.70
2022-08-07T02:47:45.480Z,0.70
2022-08-07T02:50:42.939Z,0.50
2022-08-07T02:53:38.493Z,0.60
2022-08-07T02:56:31.439Z,0.50
2022-08-07T02:59:23.886Z,0.60
2022-08-07T03:02:16.091Z,0.50
2022-08-07T03:05:05.128Z,0.60
2022-08-07T03:08:07.321Z,0.77
2022-08-07T03:10:59.676Z,0.50
2022-08-07T03:13:57.536Z,0.60
2022-08-07T03:16:48.181Z,0.50
2022-08-07T03:19:37.127Z,0.50
2022-08-07T03:22:29.585Z,0.40
2022-08-07T03:25:20.951Z,0.50
2022-08-07T03:28:37.401Z,0.40
2022-08-07T03:31:24.607Z,0.43
2022-08-07T03:34:22.298Z,0.70
2022-08-07T03:37:13.326Z,0.60
2022-08-07T03:40:15.047Z,0.82
2022-08-07T03:43:03.369Z,0.63
2022-08-07T03:45:52.711Z,0.70
2022-08-07T03:48:45.613Z,0.85
2022-08-07T03:51:55.321Z,0.55
2022-08-07T03:54:54.896Z,0.68
2022-08-07T03:58:33.315Z,0.60
2022-08-07T04:00:59.686Z,0.70
2022-08-07T04:03:53.706Z,0.70
2022-08-07T04:06:44.241Z,0.70
2022-08-07T04:09:44.739Z,0.80
2022-08-07T04:12:35.188Z,0.70
2022-08-07T04:15:23.859Z,0.70
2022-08-07T04:18:57.866Z,0.73
2022-08-07T04:21:20.953Z,0.70
2022-08-07T04:24:33.712Z,0.63
2022-08-07T04:27:25.716Z,0.80
2022-08-07T04:30:21.329Z,0.97
2022-08-07T04:33:28.744Z,0.80
2022-08-07T04:36:16.064Z,0.70
2022-08-07T04:39:10.859Z,0.73
2022-08-07T04:41:56.751Z,0.70
2022-08-07T04:44:54.668Z,0.60
2022-08-07T04:48:10.615Z,0.70
2022-08-07T04:51:32.123Z,0.50
2022-08-07T04:54:50.715Z,0.60
2022-08-07T04:58:10.696Z,0.50
2022-08-07T05:01:18.292Z,0.50
2022-08-07T05:04:17.409Z,0.60
2022-08-07T05:07:19.576Z,0.60
2022-08-07T05:10:20.082Z,0.50
2022-08-07T05:14:53.755Z,0.60
2022-08-07T05:16:22.686Z,0.70
2022-08-07T05:19:16.927Z,0.50
2022-08-07T05:22:07.624Z,0.80
2022-08-07T05:24:59.860Z,0.98
2022-08-07T05:28:16.072Z,1.20
2022-08-07T05:30:56.933Z,0.97
2022-08-07T05:34:01.515Z,0.80
2022-08-07T05:36:56.600Z,0.90
2022-08-07T05:40:18.143Z,1.10
2022-08-07T05:43:06.540Z,1.00
2022-08-07T05:45:58.148Z,1.00
2022-08-07T05:48:58.092Z,1.17
2022-08-07T05:51:47.071Z,0.90
2022-08-07T05:54:53.253Z,1.10
2022-08-07T05:57:42.087Z,0.80
2022-08-07T06:00:34.014Z,0.93
2022-08-07T06:03:25.052Z,1.00
2022-08-07T06:06:33.747Z,0.77
2022-08-07T06:10:03.801Z,0.80
2022-08-07T06:12:32.967Z,0.88
2022-08-07T06:15:21.150Z,0.80
2022-08-07T06:18:08.049Z,0.88
2022-08-07T06:22:11.867Z,1.00
2022-08-07T06:24:52.715Z,0.98
2022-08-07T06:27:08.682Z,0.82
2022-08-07T06:29:57.006Z,0.85
2022-08-07T06:32:44.282Z,0.95
2022-08-07T06:35:45.670Z,0.88
2022-08-07T06:38:58.617Z,0.98
2022-08-07T06:42:02.566Z,0.90
2022-08-07T06:45:22.601Z,0.95
2022-08-07T06:48:14.569Z,1.00
2022-08-07T06:51:09.481Z,1.20
2022-08-07T06:55:29.920Z,1.00
2022-08-07T06:57:10.667Z,0.98
2022-08-07T07:00:13.863Z,1.00
2022-08-07T07:03:08.746Z,0.82
2022-08-07T07:06:02.959Z,1.20
2022-08-07T07:08:53.554Z,1.10
2022-08-07T07:12:09.095Z,1.55
2022-08-07T07:15:08.961Z,1.50
2022-08-07T07:18:15.066Z,1.10
2022-08-07T07:21:26.925Z,1.27
2022-08-07T07:24:13.230Z,1.10
2022-08-07T07:27:01.984Z,1.30
2022-08-07T07:30:09.315Z,1.65
2022-08-07T07:33:01.076Z,1.43
2022-08-07T07:36:04.078Z,1.55
2022-08-07T07:38:52.130Z,1.30
2022-08-07T07:41:50.851Z,1.40
2022-08-07T07:44:49.579Z,1.42
2022-08-07T07:47:52.090Z,1.63
2022-08-07T07:50:40.188Z,1.48
2022-08-07T07:53:27.283Z,1.40
2022-08-07T07:56:14.816Z,1.35
2022-08-07T07:59:05.914Z,1.15
2022-08-07T08:02:02.667Z,1.40
2022-08-07T08:04:52.400Z,1.10
2022-08-07T08:07:59.697Z,1.30
2022-08-07T08:10:47.876Z,1.25
2022-08-07T08:13:50.767Z,1.38
2022-08-07T08:16:49.414Z,1.50
2022-08-07T08:20:16.289Z,1.55
2022-08-07T08:23:08.445Z,1.52
2022-08-07T08:26:18.080Z,1.20
2022-08-07T08:29:05.422Z,1.20
2022-08-07T08:32:17.186Z,1.40
2022-08-07T08:35:00.231Z,1.50
2022-08-07T08:38:01.657Z,1.42
2022-08-07T08:40:57.052Z,1.10
2022-08-07T08:44:04.462Z,1.10
2022-08-07T08:47:01.897Z,1.20
2022-08-07T08:50:05.420Z,1.23
2022-08-07T08:53:03.448Z,1.75
2022-08-07T08:55:54.891Z,1.42
2022-08-07T08:59:08.698Z,1.30
2022-08-07T09:02:37.937Z,1.60
2022-08-07T09:05:41.575Z,1.52
2022-08-07T09:08:39.319Z,1.70
2022-08-07T09:11:55.434Z,2.03
2022-08-07T09:14:50.566Z,1.87
2022-08-07T09:17:59.606Z,1.95
2022-08-07T09:21:02.834Z,2.08
2022-08-07T09:24:30.452Z,1.70
2022-08-07T09:27:24.875Z,2.00
2022-08-07T09:30:17.284Z,2.10
2022-08-07T09:33:52.614Z,1.90
2022-08-07T09:36:46.638Z,2.00
2022-08-07T09:40:08.873Z,1.88
2022-08-07T09:43:08.305Z,2.05
2022-08-07T09:47:49.577Z,2.40
2022-08-07T09:50:01.082Z,2.40
2022-08-07T09:53:11.195Z,1.90
2022-08-07T09:56:33.828Z,2.38
2022-08-07T10:00:00.917Z,2.10
2022-08-07T10:04:03.193Z,2.33
2022-08-07T10:07:05.118Z,1.90
2022-08-07T10:10:30.117Z,1.65
2022-08-07T10:13:55.394Z,1.58
2022-08-07T10:16:50.703Z,1.33
2022-08-07T10:19:42.069Z,1.30
2022-08-07T10:22:54.420Z,1.33
2022-08-07T10:26:04.375Z,1.38
2022-08-07T10:29:18.405Z,1.30
2022-08-07T10:32:52.313Z,1.60
2022-08-07T10:35:55.306Z,1.48
2022-08-07T10:38:48.670Z,1.60
2022-08-07T10:41:46.473Z,1.17
2022-08-07T10:44:48.001Z,1.42
2022-08-07T10:48:21.454Z,1.50
2022-08-07T10:51:39.502Z,1.30
2022-08-07T10:54:55.173Z,1.40
2022-08-07T10:58:06.219Z,1.60
2022-08-07T11:01:01.964Z,1.30
2022-08-07T11:04:11.160Z,1.37
2022-08-07T11:07:58.981Z,0.93
2022-08-07T11:11:03.731Z,1.33
2022-08-07T11:14:45.668Z,1.15
2022-08-07T11:17:23.197Z,1.40
2022-08-07T11:20:35.594Z,1.17
2022-08-07T11:23:38.806Z,1.23
2022-08-07T11:26:38.626Z,0.82
2022-08-07T11:29:48.139Z,0.80
2022-08-07T11:32:45.898Z,0.80
2022-08-07T11:35:59.177Z,0.70
2022-08-07T11:39:25.948Z,0.83
2022-08-07T11:42:34.454Z,1.00
2022-08-07T11:45:49.772Z,0.90
2022-08-07T11:49:27.683Z,0.75
2022-08-07T11:52:37.778Z,0.50
2022-08-07T11:56:25.188Z,0.50
2022-08-07T11:59:00.717Z,0.63
2022-08-07T12:02:01.341Z,0.67
2022-08-07T12:05:04.119Z,0.60
2022-08-07T12:08:31.397Z,0.80
2022-08-07T12:12:09.709Z,0.90
2022-08-07T12:15:46.592Z,0.82
2022-08-07T12:18:45.398Z,0.60
2022-08-07T12:21:55.788Z,0.85
2022-08-07T12:26:03.466Z,0.70
2022-08-07T12:29:22.558Z,0.77
2022-08-07T12:33:00.562Z,0.70
2022-08-07T12:35:58.035Z,0.55
2022-08-07T12:38:57.743Z,0.40
2022-08-07T12:42:00.011Z,0.75
2022-08-07T12:45:05.608Z,0.70
2022-08-07T12:48:02.120Z,0.50
2022-08-07T12:51:12.980Z,0.50
2022-08-07T12:54:37.962Z,0.80
2022-08-07T12:57:39.187Z,0.60
2022-08-07T13:01:08.914Z,0.50
2022-08-07T13:04:34.010Z,1.00
2022-08-07T13:08:14.624Z,0.70
2022-08-07T13:12:01.886Z,0.70
2022-08-07T13:15:09.509Z,0.60
2022-08-07T13:18:38.705Z,0.50
2022-08-07T13:21:57.564Z,0.60
2022-08-07T13:25:24.295Z,0.65
2022-08-07T13:28:27.279Z,0.60
2022-08-07T13:31:55.018Z,0.60
2022-08-07T13:34:55.725Z,0.52
2022-08-07T13:38:00.919Z,0.60
2022-08-07T13:41:13.246Z,0.70
2022-08-07T13:44:05.121Z,0.75
2022-08-07T13:46:56.845Z,0.40
2022-08-07T13:50:33.176Z,0.55
2022-08-07T13:52:56.469Z,0.50
2022-08-07T13:55:46.919Z,0.57
2022-08-07T13:59:01.644Z,0.60
2022-08-07T14:02:04.149Z,0.50
2022-08-07T14:04:55.323Z,0.50
2022-08-07T14:08:00.264Z,0.50
2022-08-07T14:11:15.332Z,0.52
2022-08-07T14:14:08.122Z,0.50
2022-08-07T14:16:57.681Z,0.57
2022-08-07T14:20:40.993Z,0.47
2022-08-07T14:22:54.608Z,0.60
2022-08-07T14:25:46.149Z,0.40
2022-08-07T14:28:58.959Z,0.60
2022-08-07T14:31:57.730Z,0.50
2022-08-07T14:34:47.312Z,0.60
2022-08-07T14:37:39.297Z,0.55
2022-08-07T14:40:35.067Z,0.50
2022-08-07T14:43:58.582Z,0.50
2022-08-07T14:46:33.315Z,0.50
2022-08-07T14:49:57.168Z,0.50
2022-08-07T14:52:40.741Z,0.77
2022-08-07T14:55:34.071Z,0.55
2022-08-07T14:58:25.567Z,0.50
2022-08-07T15:04:26.188Z,0.40
2022-08-07T15:07:23.801Z,0.60
2022-08-07T15:10:30.673Z,0.55
2022-08-07T15:16:54.933Z,0.40
2022-08-07T15:20:33.185Z,0.43
2022-08-07T15:23:00.659Z,0.77
2022-08-07T15:26:06.002Z,0.50
2022-08-07T15:28:59.431Z,0.55
2022-08-07T15:32:06.386Z,0.55
2022-08-07T15:34:59.055Z,0.40
2022-08-07T15:38:04.583Z,0.50
2022-08-07T15:41:23.038Z,0.50
2022-08-07T15:44:10.430Z,0.50
2022-08-07T15:47:08.728Z,0.45
2022-08-07T15:53:17.480Z,0.40
2022-08-07T15:56:12.871Z,0.52
2022-08-07T15:59:05.689Z,0.30
2022-08-07T16:02:01.680Z,0.20
2022-08-07T16:04:49.940Z,0.30
2022-08-07T16:08:32.551Z,0.30
2022-08-07T16:11:44.997Z,0.40
2022-08-07T16:15:05.812Z,0.30
2022-08-07T16:18:03.861Z,0.40
2022-08-07T16:22:01.835Z,0.40
2022-08-07T16:24:34.799Z,0.40
2022-08-07T16:27:41.565Z,0.30
2022-08-07T16:30:34.689Z,0.40
2022-08-07T16:34:03.219Z,0.30
2022-08-07T16:38:07.336Z,0.40
2022-08-07T16:40:57.212Z,0.50
2022-08-07T16:44:04.127Z,0.40
2022-08-07T16:47:50.878Z,0.30
2022-08-07T16:51:20.523Z,0.30
2022-08-07T16:54:54.917Z,0.30
2022-08-07T16:58:04.007Z,0.32
2022-08-07T17:01:34.300Z,0.40
2022-08-07T17:04:37.007Z,0.40
2022-08-07T17:07:57.775Z,0.50
2022-08-07T17:10:54.370Z,0.52
2022-08-07T17:14:18.215Z,0.30
2022-08-07T17:17:01.279Z,0.32
2022-08-07T17:20:02.458Z,0.40
2022-08-07T17:23:16.821Z,0.50
2022-08-07T17:26:24.343Z,0.40
2022-08-07T17:30:18.220Z,0.60
2022-08-07T17:32:35.152Z,0.45
2022-08-07T17:35:50.916Z,0.43
2022-08-07T17:38:55.498Z,0.40
2022-08-07T17:42:07.014Z,0.50
2022-08-07T17:44:59.264Z,0.47
2022-08-07T17:47:58.318Z,0.70
2022-08-07T17:51:01.762Z,0.40
2022-08-07T17:54:53.501Z,0.70
2022-08-07T17:57:56.678Z,0.35
2022-08-07T18:00:52.582Z,0.40
2022-08-07T18:04:16.806Z,0.50
2022-08-07T18:07:20.565Z,0.45
2022-08-07T18:10:29.131Z,0.40
2022-08-07T18:13:49.203Z,0.40
2022-08-07T18:16:57.523Z,0.60
2022-08-07T18:21:07.526Z,0.40
2022-08-07T18:23:06.262Z,0.50
2022-08-07T18:26:16.458Z,0.57
2022-08-07T18:30:07.817Z,0.40
2022-08-07T18:32:48.203Z,0.60
2022-08-07T18:36:10.140Z,0.50
2022-08-07T18:40:07.040Z,0.50
2022-08-07T18:42:49.206Z,0.70
2022-08-07T18:46:25.669Z,0.60
2022-08-07T18:50:32.680Z,0.50
2022-08-07T18:53:04.601Z,0.73
2022-08-07T18:56:07.269Z,0.50
2022-08-07T18:59:07.647Z,0.50
2022-08-07T19:02:44.597Z,0.53
2022-08-07T19:06:03.482Z,0.80
2022-08-07T19:09:09.267Z,0.63
2022-08-07T19:12:48.808Z,0.70
2022-08-07T19:16:02.656Z,0.63
2022-08-07T19:19:19.075Z,0.60
2022-08-07T19:22:30.719Z,0.50
2022-08-07T19:26:23.199Z,0.60
2022-08-07T19:30:54.223Z,0.60
2022-08-07T19:32:09.685Z,0.70
2022-08-07T19:35:02.744Z,0.60
2022-08-07T19:37:56.955Z,0.60
2022-08-07T19:40:50.530Z,0.50
2022-08-07T19:43:50.332Z,0.77
2022-08-07T19:46:55.278Z,0.70
2022-08-07T19:49:57.209Z,0.52
2022-08-07T19:52:58.631Z,0.70
2022-08-07T19:55:58.045Z,0.55
2022-08-07T19:58:53.199Z,0.60
2022-08-07T20:01:55.900Z,0.77
2022-08-07T20:04:49.006Z,0.60
2022-08-07T20:07:46.536Z,1.00
2022-08-07T20:10:54.180Z,0.60
2022-08-07T20:13:46.390Z,0.55
2022-08-07T20:16:36.830Z,0.50
2022-08-07T20:19:47.652Z,0.60
2022-08-07T20:22:41.303Z,0.75
2022-08-07T20:25:29.435Z,0.75
2022-08-07T20:28:17.674Z,0.57
2022-08-07T20:31:20.991Z,0.80
2022-08-07T20:34:09.814Z,0.70
2022-08-07T20:36:58.230Z,0.65
2022-08-07T20:40:02.080Z,0.95
2022-08-07T20:42:56.688Z,1.00
2022-08-07T20:46:28.292Z,0.80
2022-08-07T20:49:54.119Z,1.00
2022-08-07T20:52:00.133Z,0.80
2022-08-07T20:54:53.807Z,0.65
2022-08-07T20:58:02.896Z,0.53
2022-08-07T21:01:01.097Z,0.40
2022-08-07T21:04:07.564Z,0.90
2022-08-07T21:07:04.317Z,0.80
2022-08-07T21:10:03.224Z,0.60
2022-08-07T21:12:54.882Z,0.77
2022-08-07T21:15:58.224Z,0.60
2022-08-07T21:18:50.405Z,0.70
2022-08-07T21:21:49.276Z,0.50
2022-08-07T21:25:20.747Z,0.70
2022-08-07T21:28:48.052Z,0.50
2022-08-07T21:32:10.882Z,0.45
2022-08-07T21:35:08.080Z,0.60
2022-08-07T21:38:35.478Z,0.50
2022-08-07T21:41:38.403Z,0.40
2022-08-07T21:44:51.088Z,0.50
2022-08-07T21:47:50.492Z,0.55
2022-08-07T21:50:45.496Z,0.77
2022-08-07T21:53:46.175Z,0.82
2022-08-07T21:56:47.930Z,0.45
2022-08-07T22:00:04.855Z,0.43
2022-08-07T22:03:08.564Z,0.40
2022-08-07T22:06:30.285Z,0.50
2022-08-07T22:09:25.260Z,0.68
2022-08-07T22:12:24.709Z,0.60
2022-08-07T22:16:39.896Z,0.73
2022-08-07T22:19:07.419Z,0.50
2022-08-07T22:22:20.858Z,0.70
2022-08-07T22:25:20.439Z,0.40
2022-08-07T22:28:32.071Z,0.38
2022-08-07T22:31:55.987Z,0.47
2022-08-07T22:35:07.840Z,0.40
2022-08-07T22:38:10.788Z,0.50
2022-08-07T22:41:13.170Z,0.40
2022-08-07T22:44:08.039Z,0.70
2022-08-07T22:50:52.457Z,0.40
2022-08-07T22:54:06.775Z,0.30
2022-08-07T22:57:37.418Z,0.40
2022-08-07T23:00:58.135Z,0.50
2022-08-07T23:04:29.980Z,0.40
2022-08-07T23:07:42.080Z,0.50
2022-08-07T23:10:44.452Z,0.30
2022-08-07T23:13:49.229Z,0.40
2022-08-07T23:17:15.734Z,0.50
2022-08-07T23:20:40.439Z,0.30
2022-08-07T23:24:04.251Z,0.60
2022-08-07T23:27:34.122Z,0.30
2022-08-07T23:30:37.498Z,0.30
2022-08-07T23:34:34.805Z,0.40
2022-08-07T23:37:22.504Z,0.30
2022-08-07T23:40:30.935Z,0.30
2022-08-07T23:43:46.758Z,0.30
2022-08-07T23:46:49.970Z,0.30
2022-08-07T23:49:50.310Z,0.38
2022-08-07T23:53:19.319Z,0.30
2022-08-07T23:56:31.164Z,0.30
